createdAt,value
2022-11-24T00:00:22.943Z,76.24
2022-11-24T00:02:49.355Z,76.51
2022-11-24T00:05:15.803Z,78.33
2022-11-24T00:07:42.209Z,78.43
2022-11-24T00:10:08.565Z,77.80
2022-11-24T00:12:34.875Z,77.62
2022-11-24T00:15:01.183Z,77.65
2022-11-24T00:17:27.469Z,78.08
2022-11-24T00:19:53.758Z,77.91
2022-11-24T00:22:20.075Z,78.32
2022-11-24T00:24:46.358Z,78.54
2022-11-24T00:27:12.655Z,78.50
2022-11-24T00:29:38.956Z,78.27
2022-11-24T00:32:05.264Z,78.76
2022-11-24T00:34:31.901Z,78.67
2022-11-24T00:36:58.415Z,78.62
2022-11-24T00:39:24.773Z,78.17
2022-11-24T00:41:51.089Z,77.87
2022-11-24T00:44:17.438Z,77.49
2022-11-24T00:46:43.850Z,76.84
2022-11-24T00:49:10.203Z,77.04
2022-11-24T00:51:36.506Z,77.00
2022-11-24T00:54:02.804Z,77.35
2022-11-24T00:56:29.099Z,78.06
2022-11-24T00:58:55.408Z,78.07
2022-11-24T01:01:21.791Z,79.27
2022-11-24T01:03:48.147Z,78.78
2022-11-24T01:06:14.477Z,78.48
2022-11-24T01:08:40.777Z,79.29
2022-11-24T01:11:07.069Z,79.07
2022-11-24T01:13:33.382Z,78.93
2022-11-24T01:15:59.701Z,79.29
2022-11-24T01:18:26.029Z,77.92
2022-11-24T01:20:52.347Z,78.56
2022-11-24T01:23:18.663Z,78.61
2022-11-24T01:25:44.959Z,77.48
2022-11-24T01:28:11.279Z,77.42
2022-11-24T01:30:37.636Z,77.89
2022-11-24T01:33:03.948Z,77.96
2022-11-24T01:35:30.269Z,77.39
2022-11-24T01:37:56.553Z,77.27
2022-11-24T01:40:22.845Z,77.62
2022-11-24T01:42:49.151Z,76.54
2022-11-24T01:45:15.442Z,76.96
2022-11-24T01:47:41.738Z,77.37
2022-11-24T01:50:08.109Z,78.36
2022-11-24T01:52:34.406Z,77.85
2022-11-24T01:55:00.807Z,78.93
2022-11-24T01:57:27.120Z,78.16
2022-11-24T01:59:53.416Z,78.75
2022-11-24T02:02:19.869Z,77.88
2022-11-24T02:04:46.240Z,78.03
2022-11-24T02:07:12.592Z,77.89
2022-11-24T02:09:38.930Z,77.69
2022-11-24T02:12:05.245Z,76.23
2022-11-24T02:14:31.881Z,75.87
2022-11-24T02:16:58.442Z,76.29
2022-11-24T02:19:24.744Z,76.29
2022-11-24T02:21:51.019Z,75.96
2022-11-24T02:24:17.319Z,76.81
2022-11-24T02:26:43.687Z,76.59
2022-11-24T02:29:09.991Z,76.91
2022-11-24T02:31:36.339Z,77.28
2022-11-24T02:34:02.692Z,76.85
2022-11-24T02:36:28.997Z,75.14
2022-11-24T02:38:55.303Z,75.12
2022-11-24T02:41:21.615Z,75.09
2022-11-24T02:43:47.915Z,75.98
2022-11-24T02:46:14.244Z,75.86
2022-11-24T02:48:40.596Z,76.08
2022-11-24T02:51:06.888Z,76.16
2022-11-24T02:53:33.177Z,76.08
2022-11-24T02:55:59.522Z,75.94
2022-11-24T02:58:25.809Z,76.13
2022-11-24T03:00:52.098Z,76.31
2022-11-24T03:03:18.406Z,76.78
2022-11-24T03:05:44.697Z,76.47
2022-11-24T03:08:10.975Z,76.92
2022-11-24T03:10:37.285Z,77.08
2022-11-24T03:13:03.579Z,76.88
2022-11-24T03:15:29.970Z,76.63
2022-11-24T03:17:56.348Z,75.53
2022-11-24T03:20:22.635Z,75.66
2022-11-24T03:22:48.939Z,74.98
2022-11-24T03:25:15.249Z,74.39
2022-11-24T03:27:41.539Z,74.81
2022-11-24T03:30:07.838Z,74.82
2022-11-24T03:32:34.145Z,74.96
2022-11-24T03:35:00.426Z,74.89
2022-11-24T03:37:26.720Z,75.51
2022-11-24T03:39:53.045Z,75.10
2022-11-24T03:42:19.345Z,73.66
2022-11-24T03:44:45.655Z,73.67
2022-11-24T03:47:11.960Z,73.69
2022-11-24T03:49:38.261Z,72.80
2022-11-24T03:52:08.021Z,72.55
2022-11-24T03:54:34.884Z,72.75
2022-11-24T03:57:01.367Z,73.09
2022-11-24T03:59:27.665Z,72.05
2022-11-24T04:01:54.086Z,72.55
2022-11-24T04:04:20.419Z,73.38
2022-11-24T04:06:46.715Z,72.89
2022-11-24T04:09:13.034Z,73.17
2022-11-24T04:11:39.335Z,72.39
2022-11-24T04:14:10.462Z,72.86
2022-11-24T04:16:39.595Z,73.35
2022-11-24T04:19:05.932Z,73.14
2022-11-24T04:21:32.225Z,73.07
2022-11-24T04:23:58.533Z,73.62
2022-11-24T04:26:24.825Z,73.10
2022-11-24T04:28:51.115Z,74.81
2022-11-24T04:31:17.462Z,75.18
2022-11-24T04:33:43.788Z,75.35
2022-11-24T04:36:10.072Z,75.49
2022-11-24T04:39:19.881Z,75.29
2022-11-24T04:41:22.677Z,75.73
2022-11-24T04:43:48.983Z,75.62
2022-11-24T04:46:15.293Z,75.61
2022-11-24T04:48:41.624Z,75.90
2022-11-24T04:51:07.927Z,75.72
2022-11-24T04:53:34.215Z,75.09
2022-11-24T04:56:00.512Z,75.82
2022-11-24T04:58:26.826Z,75.55
2022-11-24T05:00:53.133Z,76.74
2022-11-24T05:03:19.441Z,77.17
2022-11-24T05:05:45.802Z,76.94
2022-11-24T05:08:12.106Z,76.45
2022-11-24T05:10:38.401Z,77.03
2022-11-24T05:13:04.705Z,77.61
2022-11-24T05:15:31.000Z,76.75
2022-11-24T05:17:57.308Z,76.94
2022-11-24T05:20:23.633Z,77.26
2022-11-24T05:22:49.940Z,76.98
2022-11-24T05:25:16.235Z,75.85
2022-11-24T05:27:42.556Z,76.37
2022-11-24T05:30:08.953Z,76.54
2022-11-24T05:32:35.247Z,76.06
2022-11-24T05:35:01.555Z,76.68
2022-11-24T05:37:27.839Z,76.33
2022-11-24T05:39:54.132Z,76.82
2022-11-24T05:42:20.451Z,76.73
2022-11-24T05:44:46.760Z,77.25
2022-11-24T05:47:13.054Z,77.03
2022-11-24T05:49:39.359Z,78.15
2022-11-24T05:52:05.661Z,77.64
2022-11-24T05:54:32.114Z,76.96
2022-11-24T05:56:58.738Z,77.49
2022-11-24T05:59:25.036Z,78.31
2022-11-24T06:01:51.449Z,77.76
2022-11-24T06:04:17.829Z,77.08
2022-11-24T06:06:44.168Z,76.98
2022-11-24T06:09:10.461Z,77.59
2022-11-24T06:11:36.827Z,77.39
2022-11-24T06:14:05.792Z,77.50
2022-11-24T06:16:36.128Z,78.64
2022-11-24T06:19:02.545Z,78.93
2022-11-24T06:21:28.837Z,78.38
2022-11-24T06:23:55.134Z,78.83
2022-11-24T06:26:21.453Z,78.35
2022-11-24T06:28:47.754Z,78.42
2022-11-24T06:31:14.064Z,78.89
2022-11-24T06:33:40.408Z,78.52
2022-11-24T06:36:06.791Z,78.58
2022-11-24T06:38:33.113Z,78.29
2022-11-24T06:40:59.422Z,78.83
2022-11-24T06:43:25.721Z,79.07
2022-11-24T06:45:52.119Z,79.04
2022-11-24T06:48:18.453Z,78.72
2022-11-24T06:50:44.759Z,78.62
2022-11-24T06:53:11.060Z,78.47
2022-11-24T06:55:37.372Z,78.83
2022-11-24T06:58:03.659Z,78.11
2022-11-24T07:00:29.973Z,79.27
2022-11-24T07:02:56.298Z,78.55
2022-11-24T07:05:22.643Z,78.22
2022-11-24T07:07:50.837Z,79.01
2022-11-24T07:10:17.401Z,78.48
2022-11-24T07:12:43.698Z,77.90
2022-11-24T07:15:10.014Z,77.26
2022-11-24T07:17:36.378Z,77.90
2022-11-24T07:20:02.677Z,77.67
2022-11-24T07:22:28.975Z,78.25
2022-11-24T07:24:55.283Z,77.73
2022-11-24T07:27:21.702Z,77.82
2022-11-24T07:29:48.018Z,78.45
2022-11-24T07:32:14.363Z,77.92
2022-11-24T07:34:40.686Z,77.77
2022-11-24T07:37:06.971Z,77.02
2022-11-24T07:39:33.288Z,76.87
2022-11-24T07:41:59.574Z,76.73
2022-11-24T07:44:25.875Z,77.25
2022-11-24T07:46:52.183Z,76.92
2022-11-24T07:49:18.494Z,76.65
2022-11-24T07:51:44.803Z,75.92
2022-11-24T07:54:11.297Z,74.75
2022-11-24T07:56:37.600Z,74.52
2022-11-24T07:59:03.928Z,74.35
2022-11-24T08:01:30.268Z,73.61
2022-11-24T08:03:56.629Z,73.45
2022-11-24T08:06:26.190Z,72.73
2022-11-24T08:08:55.363Z,72.64
2022-11-24T08:11:21.667Z,72.06
2022-11-24T08:13:47.957Z,72.19
2022-11-24T08:16:14.451Z,72.17
2022-11-24T08:18:40.857Z,72.91
2022-11-24T08:21:07.158Z,73.22
2022-11-24T08:23:33.517Z,72.98
2022-11-24T08:25:59.813Z,73.11
2022-11-24T08:28:26.094Z,73.45
2022-11-24T08:30:52.556Z,72.11
2022-11-24T08:33:18.964Z,72.59
2022-11-24T08:35:45.264Z,72.25
2022-11-24T08:38:12.067Z,72.36
2022-11-24T08:40:38.406Z,72.45
2022-11-24T08:43:04.695Z,71.62
2022-11-24T08:45:31.155Z,71.20
2022-11-24T08:47:58.230Z,71.07
2022-11-24T08:50:24.520Z,71.39
2022-11-24T08:52:50.823Z,71.71
2022-11-24T08:55:17.108Z,71.78
2022-11-24T08:57:43.422Z,71.65
2022-11-24T09:00:09.727Z,70.53
2022-11-24T09:02:36.026Z,70.90
2022-11-24T09:05:02.315Z,71.34
2022-11-24T09:07:28.668Z,72.17
2022-11-24T09:09:54.997Z,72.10
2022-11-24T09:12:21.295Z,71.45
2022-11-24T09:14:47.604Z,71.98
2022-11-24T09:17:13.982Z,71.35
2022-11-24T09:19:40.319Z,71.06
2022-11-24T09:22:06.624Z,71.09
2022-11-24T09:24:32.911Z,70.05
2022-11-24T09:26:59.209Z,71.29
2022-11-24T09:29:25.546Z,71.33
2022-11-24T09:31:51.827Z,71.03
2022-11-24T09:34:18.117Z,70.78
2022-11-24T09:36:44.436Z,70.82
2022-11-24T09:39:10.733Z,70.75
2022-11-24T09:41:37.029Z,69.91
2022-11-24T09:44:03.340Z,70.08
2022-11-24T09:46:29.684Z,70.36
2022-11-24T09:48:56.019Z,70.52
2022-11-24T09:51:22.349Z,70.66
2022-11-24T09:53:48.647Z,70.45
2022-11-24T09:56:14.943Z,70.61
2022-11-24T09:58:41.249Z,70.63
2022-11-24T10:01:07.598Z,70.53
2022-11-24T10:03:33.916Z,70.22
2022-11-24T10:06:00.245Z,70.65
2022-11-24T10:08:26.550Z,69.63
2022-11-24T10:10:52.847Z,69.77
2022-11-24T10:13:19.155Z,69.43
2022-11-24T10:15:45.515Z,69.49
2022-11-24T10:18:16.405Z,69.06
2022-11-24T10:20:43.228Z,69.73
2022-11-24T10:23:09.531Z,69.30
2022-11-24T10:25:35.829Z,69.61
2022-11-24T10:28:02.172Z,69.70
2022-11-24T10:30:28.468Z,70.19
2022-11-24T10:32:54.763Z,69.12
2022-11-24T10:35:21.127Z,70.10
2022-11-24T10:37:47.442Z,69.68
2022-11-24T10:40:33.367Z,69.78
2022-11-24T10:43:00.089Z,69.04
2022-11-24T10:45:26.388Z,69.16
2022-11-24T10:47:52.675Z,69.54
2022-11-24T10:50:18.991Z,69.53
2022-11-24T10:52:45.296Z,69.71
2022-11-24T10:55:11.583Z,69.26
2022-11-24T10:57:37.883Z,68.76
2022-11-24T11:00:04.482Z,68.88
2022-11-24T11:02:30.857Z,68.75
2022-11-24T11:04:57.240Z,68.56
2022-11-24T11:07:23.570Z,68.37
2022-11-24T11:09:49.899Z,68.47
2022-11-24T11:12:45.450Z,68.86
2022-11-24T11:15:02.615Z,69.86
2022-11-24T11:17:28.936Z,69.85
2022-11-24T11:20:01.687Z,70.87
2022-11-24T11:22:28.746Z,70.48
2022-11-24T11:24:55.045Z,70.73
2022-11-24T11:27:21.343Z,70.05
2022-11-24T11:35:20.214Z,71.89
2022-11-24T11:37:46.527Z,71.31
2022-11-24T11:40:15.921Z,71.19
2022-11-24T11:45:28.636Z,72.04
2022-11-24T11:47:55.029Z,72.43
2022-11-24T11:50:21.343Z,73.02
2022-11-24T11:52:47.659Z,73.76
2022-11-24T11:55:13.957Z,73.50
2022-11-24T11:57:40.239Z,73.16
2022-11-24T12:00:06.518Z,74.47
2022-11-24T12:02:32.865Z,73.78
2022-11-24T12:04:59.213Z,73.79
2022-11-24T12:07:25.530Z,74.92
2022-11-24T12:09:51.891Z,75.33
2022-11-24T12:12:18.189Z,73.99
2022-11-24T12:14:44.490Z,74.03
2022-11-24T12:17:10.816Z,74.27
2022-11-24T12:19:37.221Z,74.14
2022-11-24T12:22:03.667Z,73.90
2022-11-24T12:24:29.994Z,72.90
2022-11-24T12:26:56.324Z,73.48
2022-11-24T12:29:22.611Z,73.18
2022-11-24T12:31:48.973Z,71.97
2022-11-24T12:34:15.293Z,71.94
2022-11-24T12:36:41.593Z,73.29
2022-11-24T12:39:07.930Z,72.49
2022-11-24T12:41:41.832Z,73.25
2022-11-24T12:44:08.943Z,73.55
2022-11-24T12:46:35.301Z,74.43
2022-11-24T12:49:01.804Z,73.32
2022-11-24T12:51:28.123Z,73.45
2022-11-24T12:53:54.423Z,74.84
2022-11-24T12:56:20.722Z,73.57
2022-11-24T12:58:47.040Z,74.80
2022-11-24T13:01:16.766Z,74.71
2022-11-24T13:03:43.374Z,73.41
2022-11-24T13:06:09.690Z,74.51
2022-11-24T13:08:35.981Z,75.60
2022-11-24T13:11:02.270Z,74.69
2022-11-24T13:13:28.704Z,75.26
2022-11-24T13:16:34.690Z,75.42
2022-11-24T13:18:41.394Z,75.20
2022-11-24T13:21:07.712Z,74.86
2022-11-24T13:23:34.022Z,74.77
2022-11-24T13:26:00.350Z,73.86
2022-11-24T13:28:53.876Z,73.94
2022-11-24T13:31:12.975Z,74.47
2022-11-24T13:33:39.291Z,74.53
2022-11-24T13:36:05.662Z,73.47
2022-11-24T13:38:31.981Z,73.02
2022-11-24T13:41:13.421Z,73.65
2022-11-24T13:43:44.579Z,73.32
2022-11-24T13:46:11.049Z,73.49
2022-11-24T13:48:37.413Z,73.54
2022-11-24T13:51:03.770Z,74.46
2022-11-24T13:53:30.702Z,74.59
2022-11-24T13:55:57.219Z,74.22
2022-11-24T13:58:23.659Z,73.63
2022-11-24T14:00:52.948Z,73.43
2022-11-24T14:03:20.544Z,73.64
2022-11-24T14:05:46.981Z,73.73
2022-11-24T14:08:13.307Z,73.92
2022-11-24T14:10:39.609Z,73.69
2022-11-24T14:13:05.960Z,73.93
2022-11-24T14:15:32.270Z,73.44
2022-11-24T14:17:58.651Z,73.30
2022-11-24T14:20:24.972Z,73.14
2022-11-24T14:22:51.288Z,73.56
2022-11-24T14:25:17.606Z,73.42
2022-11-24T14:27:43.924Z,73.95
2022-11-24T14:30:10.215Z,73.25
2022-11-24T14:32:36.545Z,72.94
2022-11-24T14:35:03.007Z,73.58
2022-11-24T14:37:29.302Z,72.94
2022-11-24T14:39:55.600Z,73.19
2022-11-24T14:42:26.554Z,72.51
2022-11-24T14:44:52.862Z,72.41
2022-11-24T14:47:19.173Z,71.95
2022-11-24T14:49:45.550Z,71.86
2022-11-24T14:52:11.844Z,71.40
2022-11-24T14:54:38.152Z,70.66
2022-11-24T14:57:04.515Z,70.77
2022-11-24T14:59:30.811Z,70.34
2022-11-24T15:01:57.170Z,69.69
2022-11-24T15:07:10.686Z,67.94
2022-11-24T15:09:37.041Z,68.70
2022-11-24T15:12:03.352Z,69.75
2022-11-24T15:14:31.824Z,70.81
2022-11-24T15:16:58.316Z,71.44
2022-11-24T15:19:24.703Z,72.82
2022-11-24T15:21:50.995Z,73.44
2022-11-24T15:24:17.312Z,73.57
2022-11-24T15:26:43.611Z,73.69
2022-11-24T15:29:09.912Z,73.65
2022-11-24T15:31:36.291Z,73.72
2022-11-24T15:34:02.633Z,73.82
2022-11-24T15:36:28.926Z,73.41
2022-11-24T15:38:55.235Z,73.17
2022-11-24T15:41:21.525Z,72.43
2022-11-24T15:43:47.818Z,72.07
2022-11-24T15:46:14.183Z,71.42
2022-11-24T15:48:40.546Z,71.72
2022-11-24T15:51:06.847Z,71.76
2022-11-24T15:53:33.164Z,71.41
2022-11-24T15:55:59.465Z,71.47
2022-11-24T15:58:25.753Z,70.46
2022-11-24T16:00:52.126Z,70.19
2022-11-24T16:03:45.774Z,69.55
2022-11-24T16:06:04.745Z,69.49
2022-11-24T16:08:31.030Z,69.05
2022-11-24T16:10:57.318Z,69.76
2022-11-24T16:13:23.642Z,70.52
2022-11-24T16:15:50.065Z,70.09
2022-11-24T16:18:16.464Z,68.90
2022-11-24T16:20:42.807Z,69.37
2022-11-24T16:23:09.111Z,70.10
2022-11-24T16:25:35.413Z,69.55
2022-11-24T16:28:01.763Z,69.76
2022-11-24T16:30:28.054Z,68.96
2022-11-24T16:32:54.357Z,69.67
2022-11-24T16:35:20.672Z,69.47
2022-11-24T16:37:50.158Z,69.82
2022-11-24T16:40:16.447Z,70.45
2022-11-24T16:42:42.754Z,69.75
2022-11-24T16:45:09.055Z,70.20
2022-11-24T16:47:35.351Z,70.83
2022-11-24T16:50:01.706Z,70.85
2022-11-24T16:52:28.011Z,69.80
2022-11-24T16:54:54.301Z,70.51
2022-11-24T16:57:20.602Z,70.10
2022-11-24T16:59:46.886Z,69.90
2022-11-24T17:02:13.304Z,70.51
2022-11-24T17:04:39.716Z,69.78
2022-11-24T17:07:06.022Z,69.98
2022-11-24T17:09:35.992Z,69.56
2022-11-24T17:12:06.380Z,69.49
2022-11-24T17:14:32.961Z,69.48
2022-11-24T17:16:59.626Z,69.96
2022-11-24T17:19:26.270Z,70.42
2022-11-24T17:21:52.592Z,70.40
2022-11-24T17:24:18.873Z,69.82
2022-11-24T17:26:48.941Z,70.73
2022-11-24T17:29:15.588Z,70.98
2022-11-24T17:31:41.906Z,71.89
2022-11-24T17:34:08.268Z,71.38
2022-11-24T17:36:34.565Z,70.58
2022-11-24T17:39:00.855Z,71.21
2022-11-24T17:41:27.191Z,70.96
2022-11-24T17:43:53.486Z,71.11
2022-11-24T17:46:19.888Z,71.44
2022-11-24T17:48:46.256Z,72.15
2022-11-24T17:51:12.552Z,72.91
2022-11-24T17:53:38.868Z,72.10
2022-11-24T17:56:05.665Z,73.13
2022-11-24T17:58:32.096Z,73.50
2022-11-24T18:00:58.484Z,73.40
2022-11-24T18:03:24.887Z,72.86
2022-11-24T18:05:51.342Z,74.10
2022-11-24T18:08:17.689Z,73.54
2022-11-24T18:10:45.113Z,73.33
2022-11-24T18:13:22.321Z,74.00
2022-11-24T18:15:58.389Z,73.81
2022-11-24T18:18:24.701Z,74.06
2022-11-24T18:20:51.017Z,73.78
2022-11-24T18:23:17.352Z,74.25
2022-11-24T18:25:43.661Z,73.50
2022-11-24T18:28:09.969Z,72.79
2022-11-24T18:30:36.304Z,72.76
2022-11-24T18:33:02.627Z,73.58
2022-11-24T18:35:28.937Z,73.37
2022-11-24T18:37:55.245Z,73.20
2022-11-24T18:40:21.544Z,73.38
2022-11-24T18:42:47.849Z,72.71
2022-11-24T18:45:14.166Z,71.75
2022-11-24T18:47:40.473Z,71.89
2022-11-24T18:50:06.759Z,72.19
2022-11-24T18:52:33.069Z,72.10
2022-11-24T18:54:59.680Z,72.20
2022-11-24T18:57:26.059Z,72.17
2022-11-24T18:59:52.375Z,73.05
2022-11-24T19:02:18.746Z,72.44
2022-11-24T19:04:45.075Z,73.15
2022-11-24T19:07:11.453Z,72.10
2022-11-24T19:09:37.764Z,71.98
2022-11-24T19:12:04.223Z,72.42
2022-11-24T19:14:30.634Z,72.08
2022-11-24T19:16:56.974Z,73.04
2022-11-24T19:19:23.303Z,72.73
2022-11-24T19:21:49.616Z,72.44
2022-11-24T19:24:15.905Z,72.56
2022-11-24T19:26:42.196Z,73.19
2022-11-24T19:29:08.498Z,72.33
2022-11-24T19:31:34.894Z,72.72
2022-11-24T19:34:01.267Z,72.93
2022-11-24T19:36:27.570Z,72.93
2022-11-24T19:38:53.858Z,72.81
2022-11-24T19:41:20.136Z,73.37
2022-11-24T19:43:46.438Z,72.87
2022-11-24T19:46:12.857Z,73.49
2022-11-24T19:48:39.206Z,73.00
2022-11-24T19:51:05.525Z,73.35
2022-11-24T19:53:31.819Z,72.86
2022-11-24T19:55:58.358Z,73.40
2022-11-24T19:58:24.904Z,73.15
2022-11-24T20:00:51.432Z,73.11
2022-11-24T20:03:17.839Z,73.54
2022-11-24T20:05:44.144Z,74.23
2022-11-24T20:08:10.456Z,73.78
2022-11-24T20:10:36.773Z,72.75
2022-11-24T20:13:04.495Z,73.82
2022-11-24T20:15:32.362Z,73.68
2022-11-24T20:17:58.664Z,73.28
2022-11-24T20:20:25.044Z,74.03
2022-11-24T20:22:51.358Z,73.87
2022-11-24T20:25:17.686Z,73.80
2022-11-24T20:27:44.027Z,73.92
2022-11-24T20:30:10.339Z,73.98
2022-11-24T20:32:36.660Z,73.79
2022-11-24T20:35:02.969Z,74.08
2022-11-24T20:37:29.818Z,73.91
2022-11-24T20:39:56.123Z,73.70
2022-11-24T20:42:22.502Z,73.76
2022-11-24T20:44:48.803Z,73.70
2022-11-24T20:47:15.097Z,74.44
2022-11-24T20:49:41.423Z,74.29
2022-11-24T20:52:07.710Z,74.05
2022-11-24T20:54:34.994Z,74.44
2022-11-24T20:57:01.548Z,74.51
2022-11-24T20:59:27.835Z,74.17
2022-11-24T21:01:54.222Z,73.94
2022-11-24T21:04:20.611Z,74.74
2022-11-24T21:06:46.907Z,74.23
2022-11-24T21:09:13.196Z,74.71
2022-11-24T21:11:39.506Z,75.06
2022-11-24T21:14:05.804Z,75.20
2022-11-24T21:16:32.144Z,75.06
2022-11-24T21:18:58.504Z,75.61
2022-11-24T21:21:24.971Z,75.59
2022-11-24T21:23:51.273Z,76.17
2022-11-24T21:26:17.636Z,75.44
2022-11-24T21:28:45.280Z,75.58
2022-11-24T21:31:11.637Z,74.99
2022-11-24T21:33:38.039Z,75.05
2022-11-24T21:36:04.336Z,75.34
2022-11-24T21:38:30.627Z,74.79
2022-11-24T21:40:56.952Z,75.92
2022-11-24T21:43:23.234Z,76.57
2022-11-24T21:45:49.554Z,75.53
2022-11-24T21:48:17.510Z,76.18
2022-11-24T21:50:43.804Z,75.47
2022-11-24T21:53:10.103Z,76.24
2022-11-24T21:55:36.475Z,76.20
2022-11-24T21:58:02.768Z,76.72
2022-11-24T22:00:29.076Z,76.02
2022-11-24T22:02:55.400Z,76.43
2022-11-24T22:05:21.705Z,75.77
2022-11-24T22:07:48.068Z,75.89
2022-11-24T22:10:14.457Z,75.07
2022-11-24T22:12:40.760Z,76.19
2022-11-24T22:15:07.050Z,76.38
2022-11-24T22:17:33.366Z,75.42
2022-11-24T22:19:59.667Z,75.68
2022-11-24T22:22:25.971Z,76.16
2022-11-24T22:24:52.293Z,76.46
2022-11-24T22:27:18.574Z,75.38
2022-11-24T22:29:44.870Z,75.47
2022-11-24T22:32:11.229Z,75.94
2022-11-24T22:34:37.751Z,76.32
2022-11-24T22:37:04.183Z,76.34
2022-11-24T22:39:30.496Z,76.53
2022-11-24T22:41:56.796Z,76.46
2022-11-24T22:44:23.106Z,76.65
2022-11-24T22:46:49.420Z,76.81
2022-11-24T22:49:15.721Z,76.36
2022-11-24T22:51:42.019Z,75.84
2022-11-24T22:54:08.327Z,76.31
2022-11-24T22:56:34.627Z,75.89
2022-11-24T22:59:00.929Z,75.47
2022-11-24T23:01:27.255Z,75.14
2022-11-24T23:03:53.617Z,75.25
2022-11-24T23:06:19.970Z,75.20
2022-11-24T23:08:46.294Z,75.16
2022-11-24T23:11:12.586Z,75.42
2022-11-24T23:13:38.886Z,75.73
2022-11-24T23:16:05.294Z,74.76
2022-11-24T23:18:31.624Z,74.96
2022-11-24T23:20:57.932Z,75.30
2022-11-24T23:23:24.234Z,74.85
2022-11-24T23:25:50.520Z,74.85
2022-11-24T23:28:16.820Z,75.73
2022-11-24T23:30:43.131Z,75.46
2022-11-24T23:33:09.418Z,75.00
2022-11-24T23:35:35.704Z,75.19
2022-11-24T23:38:09.284Z,75.49
2022-11-24T23:40:35.591Z,75.95
2022-11-24T23:43:01.904Z,76.08
2022-11-24T23:45:28.237Z,75.31
2022-11-24T23:47:54.553Z,75.32
2022-11-24T23:50:20.864Z,75.05
2022-11-24T23:52:47.172Z,75.11
2022-11-24T23:55:13.469Z,75.85
2022-11-24T23:57:39.783Z,75.45
